Time;durP1;ratioP1;P1;durP2;ratioP2;P2;SDS_P1;SDS_P2;PMS_P1;PMS_P2;Temp;Humidity;BMP_temperature;BMP_pressure;BME280_temperature;BME280_humidity;BME280_pressure;Samples;Min_cycle;Max_cycle;Signal;HPM_P1;HPM_P2
2023/05/08 00:02:01;;;;;;;25.10;6.70;;;;;;;4.44;76.14;101426.61;108444;1270;22597;-80
2023/05/08 00:04:32;;;;;;;29.10;6.70;;;;;;;4.44;76.02;101425.11;108199;1273;22517;-79
2023/05/08 00:07:02;;;;;;;22.30;6.10;;;;;;;4.39;76.11;101427.60;108096;1270;24208;-80
2023/05/08 00:09:33;;;;;;;16.60;5.40;;;;;;;4.33;76.31;101429.30;108096;1273;22476;-79
2023/05/08 00:12:05;;;;;;;17.80;5.10;;;;;;;4.26;76.30;101438.21;108123;1273;22550;-80
2023/05/08 00:14:36;;;;;;;15.10;4.30;;;;;;;4.20;76.42;101437.48;108201;1270;24196;-80
2023/05/08 00:17:06;;;;;;;15.10;5.30;;;;;;;4.16;76.56;101440.11;108654;1273;22563;-80
2023/05/08 00:19:37;;;;;;;13.30;3.60;;;;;;;4.12;76.69;101438.08;108667;1267;22536;-79
2023/05/08 00:22:08;;;;;;;15.40;4.20;;;;;;;4.11;76.84;101439.05;108712;1267;24191;-79
2023/05/08 00:24:38;;;;;;;16.50;5.00;;;;;;;4.11;76.98;101439.44;108734;1270;22536;-80
2023/05/08 00:27:09;;;;;;;15.10;4.90;;;;;;;4.11;77.78;101435.48;108620;1273;24241;-79
2023/05/08 00:29:40;;;;;;;15.60;5.90;;;;;;;4.13;77.79;101432.33;108482;1270;24180;-80
2023/05/08 00:32:10;;;;;;;17.70;5.20;;;;;;;4.15;77.91;101431.83;108471;1273;23143;-81
2023/05/08 00:34:41;;;;;;;15.90;5.80;;;;;;;4.17;78.12;101432.68;108650;1270;22784;-81
2023/05/08 00:37:12;;;;;;;17.30;6.20;;;;;;;4.20;78.10;101432.02;108763;1270;22637;-81
2023/05/08 00:39:42;;;;;;;14.50;4.70;;;;;;;4.19;78.02;101433.77;108842;1266;23922;-80
2023/05/08 00:42:13;;;;;;;14.90;4.40;;;;;;;4.15;78.04;101432.30;108913;1272;22476;-80
2023/05/08 00:44:44;;;;;;;15.30;5.60;;;;;;;4.11;78.12;101431.45;108984;1272;22490;-80
2023/05/08 00:47:15;;;;;;;14.10;4.70;;;;;;;4.11;78.21;101432.80;108932;1271;22535;-80
2023/05/08 00:49:47;;;;;;;18.00;5.70;;;;;;;4.09;78.27;101429.67;108902;1266;22574;-81
2023/05/08 00:52:19;;;;;;;15.60;5.50;;;;;;;4.08;78.56;101434.24;108941;1269;22546;-80
2023/05/08 00:54:50;;;;;;;14.30;5.20;;;;;;;4.09;78.84;101433.61;108530;1264;25501;-80
2023/05/08 00:57:23;;;;;;;17.60;5.00;;;;;;;4.09;78.89;101436.22;110826;1271;22843;-80
2023/05/08 00:59:55;;;;;;;19.60;6.30;;;;;;;4.11;79.33;101432.25;109130;1271;24253;-80
2023/05/08 01:02:26;;;;;;;19.10;5.90;;;;;;;4.13;79.27;101432.39;108855;1266;22630;-81
2023/05/08 01:04:58;;;;;;;17.20;6.60;;;;;;;4.13;79.36;101433.58;108993;1271;25408;-80
2023/05/08 01:07:28;;;;;;;18.00;5.60;;;;;;;4.14;79.40;101437.12;108928;1261;24170;-80
2023/05/08 01:09:59;;;;;;;17.10;6.00;;;;;;;4.11;79.45;101440.30;109192;1268;22522;-80
2023/05/08 01:12:41;;;;;;;18.30;6.00;;;;;;;4.09;79.44;101436.22;109395;1269;22524;-80
2023/05/08 01:15:17;;;;;;;14.40;5.20;;;;;;;4.06;79.53;101435.68;109198;1271;22598;-80
2023/05/08 01:18:02;;;;;;;17.40;6.10;;;;;;;4.03;79.60;101438.15;109386;1266;24417;-80
2023/05/08 01:20:43;;;;;;;17.50;5.90;;;;;;;4.00;79.61;101439.05;109039;1265;22523;-80
2023/05/08 01:23:44;;;;;;;22.80;7.30;;;;;;;3.96;79.65;101440.33;110147;1272;22577;-80
2023/05/08 01:26:42;;;;;;;22.80;9.40;;;;;;;3.90;79.69;101442.82;109196;1271;22548;-80
2023/05/08 01:29:46;;;;;;;20.80;8.70;;;;;;;3.86;79.75;101446.39;110810;1266;23046;-80
2023/05/08 01:32:23;;;;;;;19.10;7.90;;;;;;;3.81;79.81;101442.64;110822;1272;22427;-80
2023/05/08 01:35:00;;;;;;;18.80;7.30;;;;;;;3.77;80.05;101447.00;110753;1271;23050;-81
2023/05/08 01:37:37;;;;;;;16.20;6.20;;;;;;;3.74;80.07;101442.52;110852;1271;22860;-80
2023/05/08 01:40:17;;;;;;;17.20;6.80;;;;;;;3.74;80.22;101441.82;110848;1272;22203;-80
2023/05/08 01:42:53;;;;;;;15.30;4.60;;;;;;;3.76;80.34;101443.39;110771;1264;22209;-79
2023/05/08 01:45:31;;;;;;;16.20;5.30;;;;;;;3.77;80.37;101448.35;110662;1265;22167;-79
2023/05/08 01:48:08;;;;;;;14.60;4.50;;;;;;;3.79;80.30;101448.64;110619;1266;22286;-81
2023/05/08 01:50:44;;;;;;;15.00;4.60;;;;;;;3.79;80.30;101452.52;110814;1272;22304;-80
2023/05/08 01:53:21;;;;;;;14.90;4.60;;;;;;;3.74;80.19;101453.19;110794;1266;23001;-81
2023/05/08 01:55:57;;;;;;;16.70;4.80;;;;;;;3.69;80.15;101454.70;110764;1253;22324;-80
2023/05/08 01:58:30;;;;;;;13.90;3.70;;;;;;;3.64;80.25;101456.15;110828;1266;22191;-81
2023/05/08 02:01:02;;;;;;;13.10;4.60;;;;;;;3.64;80.42;101453.15;110487;1266;22475;-81
2023/05/08 02:03:35;;;;;;;12.80;4.00;;;;;;;3.64;80.53;101451.34;108885;1272;23809;-80
2023/05/08 02:06:08;;;;;;;14.60;5.00;;;;;;;3.64;80.56;101450.47;108689;1272;24192;-80
2023/05/08 02:08:40;;;;;;;13.40;4.40;;;;;;;3.58;80.44;101452.16;109460;1272;22514;-81
2023/05/08 02:11:14;;;;;;;15.20;4.40;;;;;;;3.50;80.37;101452.35;108837;1269;22663;-80
2023/05/08 02:13:47;;;;;;;15.30;4.80;;;;;;;3.42;80.26;101449.39;108798;1272;23256;-80
2023/05/08 02:16:21;;;;;;;13.90;4.80;;;;;;;3.35;80.49;101447.38;108821;1269;22525;-81
2023/05/08 02:18:54;;;;;;;13.40;4.50;;;;;;;3.31;80.52;101449.91;110604;1272;22627;-81
2023/05/08 02:21:27;;;;;;;14.80;5.40;;;;;;;3.25;80.48;101453.09;108988;1272;22576;-80
2023/05/08 02:24:00;;;;;;;16.30;5.10;;;;;;;3.19;80.55;101457.61;108730;1272;22644;-81
2023/05/08 02:26:33;;;;;;;21.80;7.20;;;;;;;3.15;80.65;101459.67;109239;1266;22537;-80
2023/05/08 02:29:05;;;;;;;24.50;8.40;;;;;;;3.12;80.76;101464.80;110754;1272;22269;-81
2023/05/08 02:31:38;;;;;;;20.80;7.20;;;;;;;3.07;80.62;101471.28;110801;1265;22667;-81
2023/05/08 02:34:11;;;;;;;23.70;6.50;;;;;;;3.02;80.76;101472.00;110784;1269;22370;-82
2023/05/08 02:36:43;;;;;;;21.90;6.10;;;;;;;2.98;80.80;101472.96;109452;1264;24308;-81
2023/05/08 02:39:17;;;;;;;19.30;6.40;;;;;;;2.95;80.95;101473.75;108763;1272;22619;-81
2023/05/08 02:41:49;;;;;;;20.00;5.80;;;;;;;2.95;81.06;101472.50;108795;1266;25349;-80
2023/05/08 02:44:20;;;;;;;15.00;4.80;;;;;;;2.95;81.08;101474.86;108776;1272;22505;-80
2023/05/08 02:46:57;;;;;;;14.20;4.70;;;;;;;2.92;81.17;101476.29;108749;1266;25611;-81
2023/05/08 02:49:32;;;;;;;16.40;4.80;;;;;;;2.90;81.29;101477.23;108897;1271;22633;-80
2023/05/08 02:52:10;;;;;;;14.20;4.80;;;;;;;2.87;81.41;101478.65;110805;1272;23057;-80
2023/05/08 02:54:47;;;;;;;13.30;4.80;;;;;;;2.86;81.58;101484.17;109826;1272;22469;-79
2023/05/08 02:57:28;;;;;;;14.10;4.70;;;;;;;2.85;81.57;101482.28;110060;1262;22998;-87
2023/05/08 03:00:03;;;;;;;13.30;4.40;;;;;;;2.84;81.68;101484.73;109720;1272;22551;-88
2023/05/08 03:02:39;;;;;;;14.80;5.40;;;;;;;2.84;81.80;101486.38;109681;1266;25399;-87
2023/05/08 03:05:17;;;;;;;15.00;6.10;;;;;;;2.83;81.81;101486.38;109589;1272;22540;-87
2023/05/08 03:07:51;;;;;;;19.30;5.90;;;;;;;2.82;81.86;101483.39;109661;1266;22554;-89
2023/05/08 03:10:26;;;;;;;18.70;5.60;;;;;;;2.83;81.80;101483.71;109694;1266;22560;-88
2023/05/08 03:13:00;;;;;;;18.10;5.00;;;;;;;2.81;81.87;101483.48;109726;1265;22553;-88
2023/05/08 03:15:38;;;;;;;17.20;5.20;;;;;;;2.80;81.88;101487.65;109662;1269;22601;-87
2023/05/08 03:18:14;;;;;;;17.10;5.50;;;;;;;2.76;81.97;101490.41;109668;1269;22528;-88
2023/05/08 03:20:47;;;;;;;21.10;7.30;;;;;;;2.74;81.99;101492.86;109750;1266;22537;-88
2023/05/08 03:23:20;;;;;;;18.30;5.80;;;;;;;2.71;82.01;101500.66;109702;1266;22529;-87
2023/05/08 03:25:53;;;;;;;26.40;8.40;;;;;;;2.68;82.06;101498.14;109696;1272;22551;-88
2023/05/08 03:28:25;;;;;;;23.90;8.50;;;;;;;2.65;82.12;101499.55;109744;1272;22543;-89
2023/05/08 03:30:58;;;;;;;23.40;8.10;;;;;;;2.65;82.28;101498.85;109734;1271;22460;-88
2023/05/08 03:33:32;;;;;;;24.50;6.70;;;;;;;2.66;82.50;101499.56;109745;1272;24184;-89
2023/05/08 03:36:05;;;;;;;23.70;8.40;;;;;;;2.68;82.57;101499.00;109671;1272;22625;-88
2023/05/08 03:38:36;;;;;;;17.90;6.20;;;;;;;2.73;83.11;101496.55;109597;1265;22524;-88
2023/05/08 03:41:10;;;;;;;20.80;5.50;;;;;;;2.76;83.17;101492.85;109403;1272;22929;-87
2023/05/08 03:43:42;;;;;;;13.60;4.60;;;;;;;2.80;83.53;101492.93;109097;1266;22510;-85
2023/05/08 03:46:14;;;;;;;15.00;4.80;;;;;;;2.84;83.62;101493.95;109057;1272;22508;-86
2023/05/08 03:48:46;;;;;;;14.90;5.10;;;;;;;2.87;83.78;101495.37;109120;1266;22578;-86
2023/05/08 03:51:18;;;;;;;15.50;5.60;;;;;;;2.91;84.04;101495.75;109044;1253;22464;-85
2023/05/08 03:53:49;;;;;;;19.70;6.80;;;;;;;2.92;84.02;101497.88;109307;1266;27528;-85
2023/05/08 03:56:20;;;;;;;17.20;6.10;;;;;;;2.95;84.09;101497.64;109203;1266;23589;-85
2023/05/08 03:59:02;;;;;;;17.90;5.90;;;;;;;2.96;84.36;101502.60;109265;1266;22514;-85
2023/05/08 04:01:40;;;;;;;19.30;5.90;;;;;;;2.98;84.73;101502.91;109121;1266;22563;-87
2023/05/08 04:04:16;;;;;;;19.50;7.00;;;;;;;3.00;84.78;101508.42;109193;1266;22519;-84
2023/05/08 04:06:56;;;;;;;15.80;5.00;;;;;;;3.04;84.86;101507.63;109499;1265;22634;-86
2023/05/08 04:09:28;;;;;;;;;;;;;;;3.07;85.12;101509.44;109535;1266;22451;-85
2023/05/08 04:12:03;;;;;;;15.40;4.40;;;;;;;3.08;85.45;101510.30;109660;1266;22724;-85
2023/05/08 04:14:38;;;;;;;15.20;4.50;;;;;;;3.15;85.72;101512.41;109657;1270;22536;-84
2023/05/08 04:17:23;;;;;;;15.60;4.90;;;;;;;3.22;86.07;101516.58;109525;1266;24216;-86
2023/05/08 04:20:02;;;;;;;15.90;5.10;;;;;;;3.26;85.95;101516.08;109340;1266;22524;-84
2023/05/08 04:22:35;;;;;;;13.70;4.30;;;;;;;3.32;85.97;101516.86;110006;1266;23773;-83
2023/05/08 04:25:08;;;;;;;14.70;4.50;;;;;;;3.41;86.09;101522.20;109058;1270;22538;-86
2023/05/08 04:27:42;;;;;;;15.40;4.40;;;;;;;3.49;86.28;101527.14;108989;1266;22348;-84
2023/05/08 04:30:14;;;;;;;19.40;5.70;;;;;;;3.59;86.47;101527.48;109024;1266;22515;-82
2023/05/08 04:32:47;;;;;;;15.70;5.10;;;;;;;3.70;86.35;101527.21;109347;1266;22561;-85
2023/05/08 04:35:18;;;;;;;15.80;5.40;;;;;;;3.80;86.36;101532.54;109277;1266;22468;-85
2023/05/08 04:37:52;;;;;;;16.50;4.50;;;;;;;3.90;86.38;101531.46;109139;1266;26600;-84
2023/05/08 04:40:24;;;;;;;15.30;4.10;;;;;;;4.01;86.34;101539.53;108861;1262;22641;-83
2023/05/08 04:42:55;;;;;;;16.30;4.30;;;;;;;4.10;86.32;101542.80;108859;1266;22525;-84
2023/05/08 04:45:26;;;;;;;35.40;13.20;;;;;;;4.18;86.24;101547.16;108775;1269;23112;-84
2023/05/08 04:47:57;;;;;;;35.80;15.30;;;;;;;4.25;86.28;101546.02;108778;1266;24220;-84
2023/05/08 04:50:28;;;;;;;27.80;12.80;;;;;;;4.37;86.42;101552.03;108725;1270;22607;-82
2023/05/08 04:53:20;;;;;;;46.50;25.10;;;;;;;4.49;86.41;101554.94;109055;1273;22542;-85
2023/05/08 04:55:51;;;;;;;49.30;24.50;;;;;;;4.60;86.35;101558.26;109139;1273;24266;-86
2023/05/08 04:58:21;;;;;;;40.40;16.70;;;;;;;4.71;86.23;101567.20;108823;1266;24449;-84
2023/05/08 05:00:52;;;;;;;37.20;16.80;;;;;;;4.78;86.25;101564.52;108863;1266;22529;-83
2023/05/08 05:03:23;;;;;;;41.60;16.50;;;;;;;4.88;86.17;101569.65;108846;1268;22580;-84
2023/05/08 05:06:00;;;;;;;26.50;9.10;;;;;;;4.97;86.14;101576.23;108840;1266;25409;-84
2023/05/08 05:08:32;;;;;;;23.80;7.40;;;;;;;5.07;86.14;101580.02;108724;1266;23911;-83
2023/05/08 05:11:03;;;;;;;22.20;6.20;;;;;;;5.17;86.12;101578.48;108765;1266;22643;-83
2023/05/08 05:13:34;;;;;;;16.10;5.00;;;;;;;5.26;86.04;101578.33;108728;1266;22512;-84
2023/05/08 05:16:06;;;;;;;17.50;5.20;;;;;;;5.35;85.95;101576.98;108813;1266;24201;-84
2023/05/08 05:18:36;;;;;;;17.20;5.50;;;;;;;5.43;86.02;101576.80;108800;1262;22549;-84
2023/05/08 05:21:07;;;;;;;14.70;4.40;;;;;;;5.56;86.11;101578.33;108782;1266;25403;-81
2023/05/08 05:23:38;;;;;;;14.40;4.00;;;;;;;5.65;85.69;101580.77;108638;1262;23002;-82
2023/05/08 05:26:09;;;;;;;17.60;4.20;;;;;;;5.74;85.88;101578.04;108839;1266;22557;-82
2023/05/08 05:29:06;;;;;;;12.50;3.90;;;;;;;5.88;85.88;101575.21;108708;1271;22513;-82
2023/05/08 05:31:37;;;;;;;13.40;4.00;;;;;;;6.01;85.85;101582.17;108711;1266;22517;-83
2023/05/08 05:34:08;;;;;;;12.50;4.10;;;;;;;6.14;85.66;101581.30;108671;1272;22517;-83
2023/05/08 05:36:39;;;;;;;11.60;3.90;;;;;;;6.26;85.50;101580.81;108481;1266;23393;-83
2023/05/08 05:39:10;;;;;;;11.60;3.30;;;;;;;6.39;85.14;101583.64;108559;1273;22529;-83
2023/05/08 05:41:43;;;;;;;12.30;3.80;;;;;;;6.48;84.85;101585.57;108487;1266;25314;-83
2023/05/08 05:44:13;;;;;;;14.20;4.30;;;;;;;6.54;84.90;101579.70;109052;1266;24103;-83
2023/05/08 05:46:44;;;;;;;13.30;3.90;;;;;;;6.64;84.88;101582.55;108590;1266;22838;-83
2023/05/08 05:49:15;;;;;;;13.30;3.20;;;;;;;6.74;84.60;101580.09;108624;1267;22559;-83
2023/05/08 05:51:46;;;;;;;16.10;4.10;;;;;;;6.84;84.21;101580.10;108739;1266;25512;-83
2023/05/08 05:54:17;;;;;;;13.60;4.20;;;;;;;6.93;84.03;101585.88;108603;1273;22510;-83
2023/05/08 05:56:48;;;;;;;21.40;5.70;;;;;;;7.03;83.98;101588.10;108567;1266;22555;-82
2023/05/08 05:59:19;;;;;;;15.10;3.90;;;;;;;7.14;83.61;101590.29;108698;1262;22512;-83
2023/05/08 06:01:49;;;;;;;17.20;4.90;;;;;;;7.22;83.34;101586.43;108686;1273;23350;-83
2023/05/08 06:04:20;;;;;;;20.30;5.70;;;;;;;7.28;83.43;101585.67;108661;1273;22522;-83
2023/05/08 06:06:52;;;;;;;22.40;5.80;;;;;;;7.38;83.36;101585.34;108649;1266;23008;-83
2023/05/08 06:09:23;;;;;;;29.70;8.10;;;;;;;7.48;83.10;101587.70;108655;1273;22692;-83
2023/05/08 06:11:53;;;;;;;29.40;7.70;;;;;;;7.57;82.61;101591.51;108716;1273;22571;-83
2023/05/08 06:14:24;;;;;;;25.70;7.70;;;;;;;7.65;82.35;101594.28;108624;1266;23210;-83
2023/05/08 06:16:56;;;;;;;29.80;8.60;;;;;;;7.73;82.42;101591.05;108831;1273;22784;-83
2023/05/08 06:19:49;;;;;;;20.00;5.20;;;;;;;7.81;81.97;101594.45;108823;1273;22537;-83
2023/05/08 06:22:22;;;;;;;13.20;4.20;;;;;;;7.84;81.64;101593.34;108931;1270;22601;-83
2023/05/08 06:24:54;;;;;;;13.50;4.30;;;;;;;7.89;81.93;101599.11;108787;1266;22824;-83
2023/05/08 06:27:34;;;;;;;13.80;4.00;;;;;;;7.98;81.77;101595.52;110647;1273;22352;-84
2023/05/08 06:30:09;;;;;;;25.60;6.00;;;;;;;8.05;80.80;101601.73;110612;1273;22739;-83
2023/05/08 06:32:40;;;;;;;17.30;4.50;;;;;;;8.08;80.11;101597.13;110603;1270;22436;-83
2023/05/08 06:35:12;;;;;;;15.60;4.50;;;;;;;8.11;80.03;101596.43;110574;1273;22900;-84
2023/05/08 06:37:42;;;;;;;10.90;2.90;;;;;;;8.15;80.11;101599.84;110647;1273;23203;-84
2023/05/08 06:40:15;;;;;;;12.30;3.30;;;;;;;8.20;80.02;101597.91;106504;1266;5395932;-81
2023/05/08 06:42:46;;;;;;;15.20;3.50;;;;;;;8.27;79.79;101600.89;110617;1266;22423;-84
2023/05/08 06:45:17;;;;;;;13.50;3.60;;;;;;;8.31;79.82;101601.77;109381;1273;22537;-83
2023/05/08 06:47:49;;;;;;;22.70;4.70;;;;;;;8.38;79.73;101605.96;108650;1272;22615;-83
2023/05/08 06:50:20;;;;;;;31.00;11.50;;;;;;;8.43;78.66;101610.79;108644;1271;23024;-84
2023/05/08 06:52:51;;;;;;;35.00;15.90;;;;;;;8.44;78.41;101613.08;108675;1271;26402;-84
2023/05/08 06:55:22;;;;;;;30.20;11.20;;;;;;;8.45;78.11;101618.95;108611;1267;23159;-81
2023/05/08 06:57:52;;;;;;;12.90;4.20;;;;;;;8.45;77.89;101617.83;108697;1259;22534;-81
2023/05/08 07:00:24;;;;;;;22.30;5.70;;;;;;;8.45;77.79;101620.99;108672;1270;22823;-81
2023/05/08 07:02:54;;;;;;;13.90;3.50;;;;;;;8.47;77.55;101621.12;108612;1273;22526;-81
2023/05/08 07:05:26;;;;;;;12.00;3.80;;;;;;;8.48;77.67;101619.98;108604;1273;26528;-84
2023/05/08 07:07:58;;;;;;;12.00;3.50;;;;;;;8.50;77.26;101619.40;108653;1273;23462;-82
2023/05/08 07:10:29;;;;;;;10.20;2.70;;;;;;;8.50;76.56;101623.52;108637;1270;22517;-82
2023/05/08 07:12:59;;;;;;;11.60;3.00;;;;;;;8.51;76.51;101621.69;108523;1266;22621;-83
2023/05/08 07:15:33;;;;;;;11.20;2.80;;;;;;;8.54;76.86;101623.42;108476;1273;22524;-83
2023/05/08 07:18:04;;;;;;;12.10;3.10;;;;;;;8.59;76.75;101623.96;108420;1273;24187;-83
2023/05/08 07:20:35;;;;;;;18.60;4.00;;;;;;;8.63;76.60;101624.98;108472;1262;25214;-83
2023/05/08 07:23:06;;;;;;;9.30;2.40;;;;;;;8.69;76.34;101620.86;108604;1273;23299;-83
2023/05/08 07:25:37;;;;;;;8.70;2.30;;;;;;;8.77;75.70;101619.16;108582;1271;22998;-83
2023/05/08 07:28:08;;;;;;;7.80;2.10;;;;;;;8.80;75.25;101617.09;108673;1272;22536;-82
2023/05/08 07:30:39;;;;;;;7.90;1.90;;;;;;;8.84;75.02;101616.93;108690;1266;23170;-83
2023/05/08 07:33:10;;;;;;;10.30;2.40;;;;;;;8.91;74.50;101621.62;108630;1271;22548;-83
2023/05/08 07:35:43;;;;;;;7.70;2.30;;;;;;;8.97;74.10;101622.10;108700;1272;22462;-83
2023/05/08 07:38:14;;;;;;;9.30;2.20;;;;;;;9.00;73.47;101621.15;108649;1269;22552;-83
2023/05/08 07:40:45;;;;;;;8.20;2.40;;;;;;;9.03;73.03;101618.72;108628;1271;22563;-83
2023/05/08 07:43:16;;;;;;;6.90;1.80;;;;;;;9.10;73.25;101616.21;108590;1260;24199;-83
2023/05/08 07:45:47;;;;;;;9.00;2.30;;;;;;;9.14;73.07;101619.60;108559;1266;22515;-83
2023/05/08 07:48:18;;;;;;;10.90;2.30;;;;;;;9.20;73.23;101622.66;108685;1273;22513;-83
2023/05/08 07:50:51;;;;;;;6.50;1.80;;;;;;;9.26;73.33;101618.61;108587;1273;25948;-83
2023/05/08 07:53:21;;;;;;;9.40;2.60;;;;;;;9.34;73.17;101615.77;108643;1266;24327;-83
2023/05/08 07:55:52;;;;;;;11.00;2.50;;;;;;;9.38;72.61;101618.04;108638;1274;22613;-82
2023/05/08 07:58:23;;;;;;;10.40;2.10;;;;;;;9.39;72.35;101614.68;108564;1273;22540;-83
2023/05/08 08:00:54;;;;;;;11.20;2.30;;;;;;;9.41;72.60;101615.98;108476;1266;22514;-83
2023/05/08 08:03:24;;;;;;;8.80;2.10;;;;;;;9.44;72.52;101613.83;108606;1273;23733;-82
2023/05/08 08:05:55;;;;;;;9.60;2.00;;;;;;;9.51;71.62;101615.87;108478;1266;22623;-83
2023/05/08 08:08:26;;;;;;;7.40;2.00;;;;;;;9.56;71.96;101615.34;108474;1271;23191;-82
2023/05/08 08:10:57;;;;;;;10.80;1.90;;;;;;;9.64;71.75;101616.31;108639;1266;22690;-83
2023/05/08 08:13:28;;;;;;;9.90;2.20;;;;;;;9.70;71.04;101617.65;108683;1271;24183;-83
2023/05/08 08:15:59;;;;;;;5.70;1.70;;;;;;;9.74;70.49;101614.84;108766;1272;22543;-83
2023/05/08 08:18:30;;;;;;;7.70;2.00;;;;;;;9.78;70.55;101609.08;108647;1273;22522;-83
2023/05/08 08:21:01;;;;;;;11.60;2.70;;;;;;;9.84;70.17;101606.84;108662;1273;22563;-83
2023/05/08 08:23:32;;;;;;;7.80;2.10;;;;;;;9.88;70.35;101605.27;108641;1273;22518;-83
2023/05/08 08:26:03;;;;;;;8.80;1.80;;;;;;;9.97;70.16;101602.64;108650;1273;22529;-83
2023/05/08 08:28:34;;;;;;;7.60;1.60;;;;;;;10.06;69.93;101600.61;108747;1266;24206;-83
2023/05/08 08:31:05;;;;;;;7.70;2.10;;;;;;;10.13;68.93;101602.05;108626;1272;22467;-82
2023/05/08 08:33:35;;;;;;;7.80;1.90;;;;;;;10.14;68.35;101600.48;108604;1269;22511;-83
2023/05/08 08:36:12;;;;;;;10.80;2.30;;;;;;;10.19;68.30;101596.36;108784;1273;23918;-83
2023/05/08 08:38:43;;;;;;;13.10;2.20;;;;;;;10.23;67.72;101600.64;108697;1270;22622;-83
2023/05/08 08:41:16;;;;;;;8.00;1.70;;;;;;;10.27;67.21;101601.30;108616;1273;22690;-82
2023/05/08 08:43:47;;;;;;;7.50;1.70;;;;;;;10.33;67.14;101601.61;108580;1273;23166;-82
2023/05/08 08:46:24;;;;;;;7.30;1.90;;;;;;;10.44;67.65;101600.45;108527;1267;25427;-83
2023/05/08 08:48:57;;;;;;;8.50;2.20;;;;;;;10.54;66.87;101592.49;108543;1265;23026;-83
2023/05/08 08:51:32;;;;;;;9.60;2.00;;;;;;;10.61;66.83;101592.04;110634;1266;22188;-83
2023/05/08 08:54:10;;;;;;;11.40;2.20;;;;;;;10.68;66.83;101589.42;110641;1267;22146;-82
2023/05/08 08:56:44;;;;;;;7.70;2.00;;;;;;;10.73;65.37;101592.86;109964;1266;25233;-83
2023/05/08 08:59:17;;;;;;;9.30;2.00;;;;;;;10.73;65.02;101598.05;108626;1269;22842;-83
2023/05/08 09:01:53;;;;;;;12.00;2.50;;;;;;;10.73;65.23;101603.41;108635;1270;22544;-81
2023/05/08 09:04:26;;;;;;;10.50;2.90;;;;;;;10.74;65.27;101607.73;108603;1273;22778;-82
2023/05/08 09:06:58;;;;;;;11.80;2.60;;;;;;;10.78;65.24;101610.82;108632;1266;23843;-83
2023/05/08 09:09:29;;;;;;;12.10;3.00;;;;;;;10.78;64.85;101617.59;108717;1273;23147;-82
2023/05/08 09:12:00;;;;;;;14.30;3.40;;;;;;;10.79;64.90;101608.62;108575;1273;22559;-82
2023/05/08 09:14:31;;;;;;;9.00;2.70;;;;;;;10.84;65.23;101608.52;108679;1271;22549;-82
2023/05/08 09:17:03;;;;;;;11.10;2.60;;;;;;;10.88;64.84;101604.27;108688;1271;22514;-82
2023/05/08 09:19:35;;;;;;;8.30;2.50;;;;;;;10.89;64.33;101605.60;108641;1266;25241;-82
2023/05/08 09:22:08;;;;;;;9.60;2.60;;;;;;;10.88;64.43;101603.54;108976;1273;22686;-83
2023/05/08 09:24:57;;;;;;;7.70;2.40;;;;;;;10.91;64.81;101609.58;108759;1266;22511;-83
2023/05/08 09:27:29;;;;;;;8.60;2.20;;;;;;;11.00;64.45;101612.23;108640;1266;22711;-83
2023/05/08 09:30:03;;;;;;;10.60;3.00;;;;;;;11.03;64.12;101611.11;108655;1273;26648;-82
2023/05/08 09:32:36;;;;;;;12.40;3.80;;;;;;;11.03;64.03;101608.88;110290;1271;25298;-83
2023/05/08 09:35:11;;;;;;;9.50;2.40;;;;;;;11.06;63.93;101611.65;108648;1270;22566;-83
2023/05/08 09:37:43;;;;;;;12.80;2.70;;;;;;;11.08;63.60;101605.05;108595;1272;22616;-83
2023/05/08 09:40:32;;;;;;;12.00;3.50;;;;;;;11.02;63.01;101604.91;108705;1272;22560;-83
2023/05/08 09:43:14;;;;;;;9.00;2.70;;;;;;;11.03;63.54;101613.59;108672;1266;22455;-83
2023/05/08 09:45:45;;;;;;;12.20;3.90;;;;;;;11.06;63.48;101612.05;108648;1266;22559;-83
2023/05/08 09:48:16;;;;;;;6.20;1.90;;;;;;;11.11;63.17;101611.06;108683;1273;22593;-83
2023/05/08 09:50:46;;;;;;;7.30;2.00;;;;;;;11.15;62.53;101611.49;108606;1273;22529;-83
2023/05/08 09:53:17;;;;;;;8.90;2.90;;;;;;;11.22;62.63;101609.60;108687;1270;22696;-83
2023/05/08 09:55:51;;;;;;;12.00;3.70;;;;;;;11.29;63.00;101608.25;108686;1266;22630;-83
2023/05/08 09:58:23;;;;;;;10.30;3.40;;;;;;;11.32;62.75;101606.21;108705;1270;22511;-84
2023/05/08 10:00:55;;;;;;;9.60;2.20;;;;;;;11.36;62.73;101604.48;108517;1266;24251;-83
2023/05/08 10:03:58;;;;;;;10.80;2.60;;;;;;;11.46;62.18;101601.52;108614;1273;22510;-84
2023/05/08 10:06:30;;;;;;;9.00;2.00;;;;;;;11.59;61.75;101603.77;108616;1273;25408;-83
2023/05/08 10:09:14;;;;;;;12.70;2.20;;;;;;;11.66;61.30;101599.61;108744;1273;22514;-83
2023/05/08 10:11:53;;;;;;;7.80;2.10;;;;;;;11.75;61.44;101600.57;108786;1271;23166;-83
2023/05/08 10:14:25;;;;;;;9.90;2.20;;;;;;;11.84;61.02;101593.39;108731;1269;24908;-83
2023/05/08 10:16:58;;;;;;;10.70;2.40;;;;;;;11.96;60.82;101590.70;108555;1272;22550;-84
2023/05/08 10:19:31;;;;;;;7.70;1.80;;;;;;;12.09;60.43;101593.16;108606;1273;22540;-84
2023/05/08 10:22:04;;;;;;;7.80;1.80;;;;;;;12.19;60.50;101589.73;108624;1267;22619;-83
2023/05/08 10:24:41;;;;;;;6.90;1.80;;;;;;;12.26;59.93;101590.43;108678;1273;22566;-84
2023/05/08 10:27:20;;;;;;;11.20;2.50;;;;;;;12.31;59.67;101588.65;108677;1273;25287;-83
2023/05/08 10:29:55;;;;;;;9.00;2.40;;;;;;;12.35;59.83;101588.80;108683;1266;22568;-83
2023/05/08 10:32:29;;;;;;;8.80;2.50;;;;;;;12.40;59.80;101585.64;108519;1266;22539;-84
2023/05/08 10:35:03;;;;;;;13.10;3.00;;;;;;;12.47;59.48;101584.50;108618;1273;25439;-83
2023/05/08 10:37:36;;;;;;;10.40;2.50;;;;;;;12.51;59.05;101579.52;108542;1270;22522;-83
2023/05/08 10:40:09;;;;;;;14.70;3.90;;;;;;;12.58;59.42;101571.73;108563;1272;24049;-83
2023/05/08 10:42:41;;;;;;;9.00;2.40;;;;;;;12.59;58.91;101562.23;108612;1273;22544;-83
2023/05/08 10:45:13;;;;;;;11.80;3.30;;;;;;;12.63;59.06;101566.00;108506;1270;22635;-84
2023/05/08 10:48:05;;;;;;;;;;;;;;;;;;;;;
2023/05/08 10:50:50;;;;;;;14.60;2.80;;;;;;;12.56;57.61;101558.52;108589;1269;22466;-83
2023/05/08 10:53:29;;;;;;;9.40;2.60;;;;;;;12.55;57.53;101557.45;110680;1267;22251;-84
2023/05/08 10:56:27;;;;;;;7.40;1.80;;;;;;;12.57;58.10;101557.03;110656;1270;22376;-84
2023/05/08 10:58:59;;;;;;;8.60;2.20;;;;;;;12.64;57.95;101552.52;110595;1272;22185;-84
2023/05/08 11:01:31;;;;;;;8.60;2.00;;;;;;;12.70;57.40;101557.45;110645;1262;22357;-84
2023/05/08 11:04:01;;;;;;;7.60;2.20;;;;;;;12.74;57.37;101559.45;109329;1250;22554;-83
2023/05/08 11:06:47;;;;;;;7.30;2.10;;;;;;;12.79;57.20;101557.98;108690;1273;22526;-85
2023/05/08 11:09:23;;;;;;;6.20;1.70;;;;;;;12.84;57.40;101557.05;108642;1264;25281;-84
2023/05/08 11:12:06;;;;;;;10.90;2.80;;;;;;;12.86;56.50;101549.04;108704;1270;22466;-83
2023/05/08 11:14:42;;;;;;;7.30;1.70;;;;;;;12.87;56.41;101550.92;110642;1271;22203;-84
2023/05/08 11:17:12;;;;;;;7.70;1.80;;;;;;;12.90;56.43;101547.61;110166;1266;22526;-84
2023/05/08 11:19:58;;;;;;;6.90;1.60;;;;;;;12.89;55.72;101543.63;108721;1270;22548;-83
2023/05/08 11:22:34;;;;;;;7.80;1.80;;;;;;;12.88;55.95;101545.73;108716;1272;22543;-83
2023/05/08 11:25:08;;;;;;;10.40;1.60;;;;;;;12.90;55.58;101541.51;108642;1269;24256;-83
2023/05/08 11:27:56;;;;;;;4.10;1.30;;;;;;;12.88;55.83;101543.59;108613;1266;23267;-84
2023/05/08 11:30:37;;;;;;;6.90;1.30;;;;;;;12.96;56.01;101537.88;108062;1273;22519;-83
2023/05/08 11:33:29;;;;;;;9.90;1.90;;;;;;;13.08;56.10;101536.95;107919;1278;24271;-84
2023/05/08 11:36:12;;;;;;;8.70;1.90;;;;;;;13.14;55.58;101534.59;108018;1278;22573;-83
2023/05/08 11:38:44;;;;;;;5.10;1.50;;;;;;;13.14;55.05;101540.66;107956;1278;22555;-84
2023/05/08 11:41:24;;;;;;;7.10;1.50;;;;;;;13.12;54.63;101541.64;108188;1278;22561;-84
2023/05/08 11:44:26;;;;;;;6.20;1.50;;;;;;;13.13;54.89;101539.77;108112;1275;23298;-84
2023/05/08 11:46:58;;;;;;;7.20;1.40;;;;;;;13.14;54.59;101535.90;108139;1275;22572;-84
2023/05/08 11:49:29;;;;;;;7.40;1.80;;;;;;;13.13;54.73;101535.75;108156;1278;24412;-84
2023/05/08 11:52:04;;;;;;;9.20;1.70;;;;;;;13.15;54.66;101535.90;108181;1275;22579;-83